North Hudson Marine 1 — WDH6860 — position and weather

sailwx.info

Track history (hours):
 
Tides and Currents Weather Stations Pressure Air Temp Water Temp Dewpoint Dewpoint Depression Visibility Wind Speed Wind Dir Waves Ship Positions

North Hudson Marine 1

Owner: North Hudson Regional Fire & Rescue, West New York, NJ. More information available from US FCC via Universal Licensing System.

Last reported at 2017-Oct-19 18:37 UTC. Time now 2017-Oct-20 10:58 UTC.
Position N 40°46' W 074°01'.

Length 13 m; draft 0.5 m.

Type: SAR. MMSI: 367642340.

Date/timePositionNaut miles runAvg speedWind from/ knotsBaromVisibWave heightAir tempDewpointWater temp
2017-Oct-19 18:37N 40°46' W 074°01'0 2.5
2017-Oct-19 18:30N 40°45' W 074°01'3 5.9
2017-Oct-19 18:01N 40°43' W 074°02'0 0.9
2017-Oct-19 17:31N 40°43' W 074°02'714.2
2017-Oct-19 16:59N 40°50' W 073°58'0 0.1
2017-Oct-19 15:23N 40°50' W 073°58'4 9.7
2017-Oct-19 15:00N 40°46' W 073°60'0 0.2
2017-Oct-19 14:30N 40°46' W 073°60'0 0.2
2017-Oct-19 14:00N 40°46' W 073°60'0 0.0
2017-Oct-19 13:30N 40°46' W 073°60'1 0.0
2017-Oct-18 15:08N 40°46' W 074°01'0 0.0
2017-Oct-17 19:29N 40°46' W 074°01'3 6.5
2017-Oct-17 19:00N 40°43' W 074°02'2 4.1
2017-Oct-17 18:31N 40°44' W 074°01'6 2.9
2017-Oct-17 16:35N 40°50' W 073°58'0 0.4
2017-Oct-17 16:30N 40°50' W 073°58'4 7.8
2017-Oct-17 16:00N 40°46' W 074°01'1 1.3
2017-Oct-17 15:30N 40°46' W 073°60'0 0.2
2017-Oct-17 15:00N 40°46' W 073°60'1 0.1
2017-Oct-16 23:15N 40°46' W 074°01'0 1.1
2017-Oct-16 23:00N 40°46' W 074°01'0 0.1
2017-Oct-16 17:48N 40°46' W 074°01'310.9
2017-Oct-16 17:30N 40°43' W 074°02'1 1.7
2017-Oct-16 17:01N 40°43' W 074°02'7 5.1
2017-Oct-16 15:39N 40°50' W 073°58'1 4.1
2017-Oct-16 15:30N 40°49' W 073°58'0 0.0
2017-Oct-16 15:00N 40°49' W 073°58'5 4.7
2017-Oct-16 14:00N 40°46' W 074°01'0 0.2
2017-Oct-16 13:30N 40°46' W 074°01'0 0.0
2017-Oct-16 13:00N 40°46' W 074°01'0 0.0
2017-Oct-15 15:03N 40°46' W 074°01'0 0.1
2017-Oct-15 14:59N 40°46' W 074°01'0 0.0
2017-Oct-14 15:34N 40°46' W 074°01'0 0.0
2017-Oct-14 15:30N 40°46' W 074°01'0 0.0
2017-Oct-12 12:54N 40°46' W 074°01'0 0.0
2017-Oct-10 13:50N 40°46' W 074°01'  
Track history (hours):
 
Tides and Currents Weather Stations Pressure Air Temp Water Temp Dewpoint Dewpoint Depression Visibility Wind Speed Wind Dir Waves Ship Positions

North Hudson Marine 1

Owner: North Hudson Regional Fire & Rescue, West New York, NJ. More information available from US FCC via Universal Licensing System.

Last reported at 2017-Oct-19 18:37 UTC. Time now 2017-Oct-20 10:58 UTC.
Position N 40°46' W 074°01'.

Length 13 m; draft 0.5 m.

Type: SAR. MMSI: 367642340.

Date/timePositionNaut miles runAvg speedWind from/ knotsBaromVisibWave heightAir tempDewpointWater temp
2017-Oct-19 18:37N 40°46' W 074°01'0 2.5
2017-Oct-19 18:30N 40°45' W 074°01'3 5.9
2017-Oct-19 18:01N 40°43' W 074°02'0 0.9
2017-Oct-19 17:31N 40°43' W 074°02'714.2
2017-Oct-19 16:59N 40°50' W 073°58'0 0.1
2017-Oct-19 15:23N 40°50' W 073°58'4 9.7
2017-Oct-19 15:00N 40°46' W 073°60'0 0.2
2017-Oct-19 14:30N 40°46' W 073°60'0 0.2
2017-Oct-19 14:00N 40°46' W 073°60'0 0.0
2017-Oct-19 13:30N 40°46' W 073°60'1 0.0
2017-Oct-18 15:08N 40°46' W 074°01'0 0.0
2017-Oct-17 19:29N 40°46' W 074°01'3 6.5
2017-Oct-17 19:00N 40°43' W 074°02'2 4.1
2017-Oct-17 18:31N 40°44' W 074°01'6 2.9
2017-Oct-17 16:35N 40°50' W 073°58'0 0.4
2017-Oct-17 16:30N 40°50' W 073°58'4 7.8
2017-Oct-17 16:00N 40°46' W 074°01'1 1.3
2017-Oct-17 15:30N 40°46' W 073°60'0 0.2
2017-Oct-17 15:00N 40°46' W 073°60'1 0.1
2017-Oct-16 23:15N 40°46' W 074°01'0 1.1
2017-Oct-16 23:00N 40°46' W 074°01'0 0.1
2017-Oct-16 17:48N 40°46' W 074°01'310.9
2017-Oct-16 17:30N 40°43' W 074°02'1 1.7
2017-Oct-16 17:01N 40°43' W 074°02'7 5.1
2017-Oct-16 15:39N 40°50' W 073°58'1 4.1
2017-Oct-16 15:30N 40°49' W 073°58'0 0.0
2017-Oct-16 15:00N 40°49' W 073°58'5 4.7
2017-Oct-16 14:00N 40°46' W 074°01'0 0.2
2017-Oct-16 13:30N 40°46' W 074°01'0 0.0
2017-Oct-16 13:00N 40°46' W 074°01'0 0.0
2017-Oct-15 15:03N 40°46' W 074°01'0 0.1
2017-Oct-15 14:59N 40°46' W 074°01'0 0.0
2017-Oct-14 15:34N 40°46' W 074°01'0 0.0
2017-Oct-14 15:30N 40°46' W 074°01'0 0.0
2017-Oct-12 12:54N 40°46' W 074°01'0 0.0
2017-Oct-10 13:50N 40°46' W 074°01'  

Dump ship's entire track history